Norwegian Breakaway — C6ZJ3 — position and weather

sailwx.info

Track history (hours):
 
Tides and Currents Weather Stations Pressure Air Temp Water Temp Dewpoint Dewpoint Depression Visibility Wind Speed Wind Dir Waves Ship Positions

Norwegian Breakaway

Last reported at 2018-Dec-08 23:17 UTC. Time now 2018-Dec-11 07:49 UTC.
Position N 20°24' W 087°03'.

Length 325 m; draft 8.6 m.

Type: Passenger vessel. MMSI: 311050800.

Date/timePositionNaut miles runAvg speedWind from/ knotsBaromVisibWave heightAir tempDewpointWater temp
2018-Dec-08 23:17N 20°24' W 087°03'414.7
2018-Dec-08 23:00N 20°28' W 087°02'5 9.5
2018-Dec-08 22:30N 20°31' W 086°58'0 0.6
2018-Dec-08 22:00N 20°31' W 086°57'0 0.0
2018-Dec-08 21:30N 20°31' W 086°57'0 0.0
2018-Dec-08 21:00N 20°31' W 086°57'0 0.0
2018-Dec-08 20:30N 20°31' W 086°57'0 0.0
2018-Dec-08 20:00N 20°31' W 086°57'0 0.0
2018-Dec-08 19:30N 20°31' W 086°57'0 0.0
2018-Dec-08 18:57N 20°31' W 086°57'0 0.0
2018-Dec-08 18:30N 20°31' W 086°57'0 0.0
2018-Dec-08 18:00N 20°31' W 086°57'0 0.0
2018-Dec-08 17:30N 20°31' W 086°57'0 0.0
2018-Dec-08 17:00N 20°31' W 086°57'0 0.0
2018-Dec-08 16:30N 20°31' W 086°57'0 0.0
2018-Dec-08 16:00N 20°31' W 086°57'0 0.0
2018-Dec-08 15:30N 20°31' W 086°57'0 0.0
2018-Dec-08 14:59N 20°31' W 086°57'0 0.0
2018-Dec-08 14:29N 20°31' W 086°57'0 0.0
2018-Dec-08 13:59N 20°31' W 086°57'0 0.0
2018-Dec-08 13:29N 20°31' W 086°57'0 0.0
2018-Dec-08 12:59N 20°31' W 086°57'0 0.6
2018-Dec-08 12:30N 20°31' W 086°58'3 6.0
2018-Dec-08 12:01N 20°33' W 086°57'57516.6
2018-Dec-07 01:22N 29°44' W 090°00'412.1
2018-Dec-07 01:00N 29°49' W 090°00'510.4
2018-Dec-07 00:30N 29°52' W 089°56'3 6.4
2018-Dec-07 00:00N 29°55' W 089°57'611.2
2018-Dec-06 23:30N 29°57' W 090°04'0 0.5
2018-Dec-06 23:00N 29°57' W 090°04'0 0.0
2018-Dec-06 22:30N 29°57' W 090°04'0 0.0
2018-Dec-06 21:57N 29°57' W 090°04'0 0.0
2018-Dec-06 21:30N 29°57' W 090°04'0 0.0
2018-Dec-06 21:00N 29°57' W 090°04'0 0.0
2018-Dec-06 20:30N 29°57' W 090°04'0 0.0
2018-Dec-06 20:00N 29°57' W 090°04'0 0.0
2018-Dec-06 19:30N 29°57' W 090°04'0 0.0
2018-Dec-06 18:59N 29°57' W 090°04'0 0.0
2018-Dec-06 18:27N 29°57' W 090°04'0 0.0
2018-Dec-06 17:59N 29°57' W 090°04'0 0.0
2018-Dec-06 17:26N 29°57' W 090°04'0 0.0
2018-Dec-06 16:52N 29°57' W 090°04'0 0.0
2018-Dec-06 16:25N 29°57' W 090°04'0 0.0
2018-Dec-06 15:57N 29°57' W 090°04'0 0.0
2018-Dec-06 15:30N 29°57' W 090°04'0 0.0
2018-Dec-06 14:59N 29°57' W 090°04'0 0.0
2018-Dec-06 14:25N 29°57' W 090°04'0 0.0
2018-Dec-06 14:00N 29°57' W 090°04'0 0.0
2018-Dec-06 13:29N 29°57' W 090°04'0 0.0
2018-Dec-06 12:55N 29°57' W 090°04'0 0.0
2018-Dec-06 12:28N 29°57' W 090°04'0 0.0
2018-Dec-06 12:00N 29°57' W 090°04'0 0.7
2018-Dec-06 11:30N 29°57' W 090°04'510.2
2018-Dec-06 11:00N 29°55' W 089°58'4 8.9
2018-Dec-06 10:30N 29°52' W 089°55'4 8.8
2018-Dec-06 10:00N 29°50' W 089°60'612.4
2018-Dec-06 09:30N 29°44' W 089°60'712.2
2018-Dec-06 08:57N 29°38' W 089°56'56916.4
2018-Dec-04 22:23N 20°33' W 086°57'2 6.0
2018-Dec-04 21:58N 20°31' W 086°57'0 0.0
2018-Dec-04 21:29N 20°31' W 086°57'0 0.0
2018-Dec-04 20:58N 20°31' W 086°57'0 0.0
2018-Dec-04 20:28N 20°31' W 086°57'0 0.0
2018-Dec-04 20:01N 20°31' W 086°57'0 0.0
2018-Dec-04 19:28N 20°31' W 086°57'0 0.0
2018-Dec-04 19:00N 20°31' W 086°57'0 0.0
2018-Dec-04 18:29N 20°31' W 086°57'0 0.0
2018-Dec-04 17:57N 20°31' W 086°57'0 0.0
2018-Dec-04 17:27N 20°31' W 086°57'0 0.0
2018-Dec-04 17:00N 20°31' W 086°57'0 0.0
2018-Dec-04 16:29N 20°31' W 086°57'0 0.0
2018-Dec-04 15:57N 20°31' W 086°57'0 0.0
2018-Dec-04 15:29N 20°31' W 086°57'0 0.0
2018-Dec-04 14:58N 20°31' W 086°57'0 0.0
2018-Dec-04 14:30N 20°31' W 086°57'0 0.0
2018-Dec-04 13:57N 20°31' W 086°57'0 0.0
2018-Dec-04 13:30N 20°31' W 086°57'0 0.0
2018-Dec-04 12:59N 20°31' W 086°57'0 0.0
2018-Dec-04 12:30N 20°31' W 086°57'1 2.2
2018-Dec-04 12:00N 20°30' W 086°58'4 8.0
2018-Dec-04 11:31N 20°28' W 087°02'4 7.7
2018-Dec-04 10:58N 20°24' W 087°03'  
Track history (hours):
 
Tides and Currents Weather Stations Pressure Air Temp Water Temp Dewpoint Dewpoint Depression Visibility Wind Speed Wind Dir Waves Ship Positions

Norwegian Breakaway

Last reported at 2018-Dec-08 23:17 UTC. Time now 2018-Dec-11 07:49 UTC.
Position N 20°24' W 087°03'.

Length 325 m; draft 8.6 m.

Type: Passenger vessel. MMSI: 311050800.

Date/timePositionNaut miles runAvg speedWind from/ knotsBaromVisibWave heightAir tempDewpointWater temp
2018-Dec-08 23:17N 20°24' W 087°03'414.7
2018-Dec-08 23:00N 20°28' W 087°02'5 9.5
2018-Dec-08 22:30N 20°31' W 086°58'0 0.6
2018-Dec-08 22:00N 20°31' W 086°57'0 0.0
2018-Dec-08 21:30N 20°31' W 086°57'0 0.0
2018-Dec-08 21:00N 20°31' W 086°57'0 0.0
2018-Dec-08 20:30N 20°31' W 086°57'0 0.0
2018-Dec-08 20:00N 20°31' W 086°57'0 0.0
2018-Dec-08 19:30N 20°31' W 086°57'0 0.0
2018-Dec-08 18:57N 20°31' W 086°57'0 0.0
2018-Dec-08 18:30N 20°31' W 086°57'0 0.0
2018-Dec-08 18:00N 20°31' W 086°57'0 0.0
2018-Dec-08 17:30N 20°31' W 086°57'0 0.0
2018-Dec-08 17:00N 20°31' W 086°57'0 0.0
2018-Dec-08 16:30N 20°31' W 086°57'0 0.0
2018-Dec-08 16:00N 20°31' W 086°57'0 0.0
2018-Dec-08 15:30N 20°31' W 086°57'0 0.0
2018-Dec-08 14:59N 20°31' W 086°57'0 0.0
2018-Dec-08 14:29N 20°31' W 086°57'0 0.0
2018-Dec-08 13:59N 20°31' W 086°57'0 0.0
2018-Dec-08 13:29N 20°31' W 086°57'0 0.0
2018-Dec-08 12:59N 20°31' W 086°57'0 0.6
2018-Dec-08 12:30N 20°31' W 086°58'3 6.0
2018-Dec-08 12:01N 20°33' W 086°57'57516.6
2018-Dec-07 01:22N 29°44' W 090°00'412.1
2018-Dec-07 01:00N 29°49' W 090°00'510.4
2018-Dec-07 00:30N 29°52' W 089°56'3 6.4
2018-Dec-07 00:00N 29°55' W 089°57'611.2
2018-Dec-06 23:30N 29°57' W 090°04'0 0.5
2018-Dec-06 23:00N 29°57' W 090°04'0 0.0
2018-Dec-06 22:30N 29°57' W 090°04'0 0.0
2018-Dec-06 21:57N 29°57' W 090°04'0 0.0
2018-Dec-06 21:30N 29°57' W 090°04'0 0.0
2018-Dec-06 21:00N 29°57' W 090°04'0 0.0
2018-Dec-06 20:30N 29°57' W 090°04'0 0.0
2018-Dec-06 20:00N 29°57' W 090°04'0 0.0
2018-Dec-06 19:30N 29°57' W 090°04'0 0.0
2018-Dec-06 18:59N 29°57' W 090°04'0 0.0
2018-Dec-06 18:27N 29°57' W 090°04'0 0.0
2018-Dec-06 17:59N 29°57' W 090°04'0 0.0
2018-Dec-06 17:26N 29°57' W 090°04'0 0.0
2018-Dec-06 16:52N 29°57' W 090°04'0 0.0
2018-Dec-06 16:25N 29°57' W 090°04'0 0.0
2018-Dec-06 15:57N 29°57' W 090°04'0 0.0
2018-Dec-06 15:30N 29°57' W 090°04'0 0.0
2018-Dec-06 14:59N 29°57' W 090°04'0 0.0
2018-Dec-06 14:25N 29°57' W 090°04'0 0.0
2018-Dec-06 14:00N 29°57' W 090°04'0 0.0
2018-Dec-06 13:29N 29°57' W 090°04'0 0.0
2018-Dec-06 12:55N 29°57' W 090°04'0 0.0
2018-Dec-06 12:28N 29°57' W 090°04'0 0.0
2018-Dec-06 12:00N 29°57' W 090°04'0 0.7
2018-Dec-06 11:30N 29°57' W 090°04'510.2
2018-Dec-06 11:00N 29°55' W 089°58'4 8.9
2018-Dec-06 10:30N 29°52' W 089°55'4 8.8
2018-Dec-06 10:00N 29°50' W 089°60'612.4
2018-Dec-06 09:30N 29°44' W 089°60'712.2
2018-Dec-06 08:57N 29°38' W 089°56'56916.4
2018-Dec-04 22:23N 20°33' W 086°57'2 6.0
2018-Dec-04 21:58N 20°31' W 086°57'0 0.0
2018-Dec-04 21:29N 20°31' W 086°57'0 0.0
2018-Dec-04 20:58N 20°31' W 086°57'0 0.0
2018-Dec-04 20:28N 20°31' W 086°57'0 0.0
2018-Dec-04 20:01N 20°31' W 086°57'0 0.0
2018-Dec-04 19:28N 20°31' W 086°57'0 0.0
2018-Dec-04 19:00N 20°31' W 086°57'0 0.0
2018-Dec-04 18:29N 20°31' W 086°57'0 0.0
2018-Dec-04 17:57N 20°31' W 086°57'0 0.0
2018-Dec-04 17:27N 20°31' W 086°57'0 0.0
2018-Dec-04 17:00N 20°31' W 086°57'0 0.0
2018-Dec-04 16:29N 20°31' W 086°57'0 0.0
2018-Dec-04 15:57N 20°31' W 086°57'0 0.0
2018-Dec-04 15:29N 20°31' W 086°57'0 0.0
2018-Dec-04 14:58N 20°31' W 086°57'0 0.0
2018-Dec-04 14:30N 20°31' W 086°57'0 0.0
2018-Dec-04 13:57N 20°31' W 086°57'0 0.0
2018-Dec-04 13:30N 20°31' W 086°57'0 0.0
2018-Dec-04 12:59N 20°31' W 086°57'0 0.0
2018-Dec-04 12:30N 20°31' W 086°57'1 2.2
2018-Dec-04 12:00N 20°30' W 086°58'4 8.0
2018-Dec-04 11:31N 20°28' W 087°02'4 7.7
2018-Dec-04 10:58N 20°24' W 087°03'  

Dump ship's entire track history